createdAt,value
2017-07-10T00:00:50.286Z,51.5
2017-07-10T00:01:52.306Z,51.5
2017-07-10T00:02:54.654Z,51.6
2017-07-10T00:03:57.021Z,51.6
2017-07-10T00:04:59.047Z,51.6
2017-07-10T00:06:01.056Z,51.6
2017-07-10T00:07:03.076Z,51.6
2017-07-10T00:08:05.098Z,51.6
2017-07-10T00:09:07.107Z,51.7
2017-07-10T00:10:09.113Z,51.7
2017-07-10T00:11:11.130Z,51.8
2017-07-10T00:12:13.146Z,51.7
2017-07-10T00:13:15.161Z,51.8
2017-07-10T00:14:17.182Z,51.8
2017-07-10T00:15:19.197Z,51.8
2017-07-10T00:16:21.219Z,51.8
2017-07-10T00:17:23.229Z,51.8
2017-07-10T00:18:25.251Z,51.8
2017-07-10T00:19:27.273Z,51.9
2017-07-10T00:20:29.272Z,52
2017-07-10T00:21:31.292Z,52
2017-07-10T00:22:33.335Z,52
2017-07-10T00:23:35.345Z,52.1
2017-07-10T00:24:37.361Z,52
2017-07-10T00:25:39.370Z,52
2017-07-10T00:26:41.387Z,52.2
2017-07-10T00:27:43.399Z,52.1
2017-07-10T00:28:45.415Z,52.2
2017-07-10T00:29:47.437Z,52.2
2017-07-10T00:30:49.456Z,52.2
2017-07-10T00:31:51.466Z,52.2
2017-07-10T00:32:53.482Z,52.2
2017-07-10T00:33:55.495Z,52.2
2017-07-10T00:34:57.505Z,52.2
2017-07-10T00:35:59.526Z,52.4
2017-07-10T00:37:01.898Z,52.4
2017-07-10T00:38:03.919Z,52.4
2017-07-10T00:39:05.924Z,52.4
2017-07-10T00:40:07.934Z,52.5
2017-07-10T00:41:09.959Z,52.5
2017-07-10T00:42:11.972Z,52.5
2017-07-10T00:43:13.992Z,52.6
2017-07-10T00:44:16.006Z,52.5
2017-07-10T00:45:18.031Z,52.6
2017-07-10T00:46:20.042Z,52.6
2017-07-10T00:47:22.056Z,52.6
2017-07-10T00:48:24.083Z,52.6
2017-07-10T00:49:26.098Z,52.6
2017-07-10T00:50:28.111Z,52.7
2017-07-10T00:51:30.132Z,52.6
2017-07-10T00:52:32.136Z,52.7
2017-07-10T00:53:34.168Z,52.7
2017-07-10T00:54:36.175Z,52.7
2017-07-10T00:55:38.195Z,52.8
2017-07-10T00:56:40.207Z,52.8
2017-07-10T00:57:42.219Z,52.8
2017-07-10T00:58:44.238Z,52.8
2017-07-10T00:59:46.259Z,52.8
2017-07-10T01:00:48.265Z,52.9
2017-07-10T01:01:50.283Z,52.9
2017-07-10T01:02:52.288Z,52.9
2017-07-10T01:03:54.656Z,52.9
2017-07-10T01:04:56.674Z,52.9
2017-07-10T01:05:58.693Z,53
2017-07-10T01:07:00.711Z,53
2017-07-10T01:08:02.725Z,53.1
2017-07-10T01:09:04.736Z,53.1
2017-07-10T01:10:06.755Z,53
2017-07-10T01:11:08.761Z,53.1
2017-07-10T01:12:10.784Z,53.1
2017-07-10T01:13:12.802Z,53.1
2017-07-10T01:14:14.817Z,53.2
2017-07-10T01:15:17.175Z,53.2
2017-07-10T01:16:19.188Z,53.2
2017-07-10T01:17:21.205Z,53.2
2017-07-10T01:18:23.227Z,53.2
2017-07-10T01:19:25.235Z,53.3
2017-07-10T01:20:27.267Z,53.3
2017-07-10T01:21:29.268Z,53.4
2017-07-10T01:22:31.277Z,53.4
2017-07-10T01:23:33.636Z,53.5
2017-07-10T01:24:35.643Z,53.4
2017-07-10T01:25:37.660Z,53.5
2017-07-10T01:26:39.669Z,53.5
2017-07-10T01:27:41.679Z,53.5
2017-07-10T01:28:43.706Z,53.5
2017-07-10T01:29:45.711Z,53.6
2017-07-10T01:30:47.727Z,53.6
2017-07-10T01:31:49.735Z,53.5
2017-07-10T01:32:51.753Z,53.6
2017-07-10T01:33:53.762Z,53.7
2017-07-10T01:34:55.784Z,53.7
2017-07-10T01:35:57.806Z,53.6
2017-07-10T01:37:00.172Z,53.6
2017-07-10T01:38:02.184Z,53.6
2017-07-10T01:39:04.198Z,53.6
2017-07-10T01:40:06.216Z,53.6
2017-07-10T01:41:08.567Z,53.7
2017-07-10T01:42:10.571Z,53.7
2017-07-10T01:43:12.601Z,53.7
2017-07-10T01:44:14.608Z,53.8
2017-07-10T01:45:16.618Z,53.8
2017-07-10T01:46:18.630Z,53.9
2017-07-10T01:47:20.645Z,53.9
2017-07-10T01:48:22.663Z,53.9
2017-07-10T01:49:24.684Z,53.9
2017-07-10T01:50:26.701Z,54
2017-07-10T01:51:28.719Z,53.8
2017-07-10T01:52:30.727Z,54
2017-07-10T01:53:32.740Z,54
2017-07-10T01:54:34.769Z,54
2017-07-10T01:55:36.788Z,54
2017-07-10T01:56:38.798Z,54
2017-07-10T01:57:40.815Z,54
2017-07-10T01:58:42.826Z,54
2017-07-10T01:59:44.837Z,54.1
2017-07-10T02:00:46.847Z,54
2017-07-10T02:01:48.872Z,54.1
2017-07-10T02:02:50.891Z,54.1
2017-07-10T02:03:52.898Z,54.1
2017-07-10T02:04:54.908Z,54.2
2017-07-10T02:05:56.918Z,54.1
2017-07-10T02:06:58.934Z,54.2
2017-07-10T02:08:00.951Z,54.2
2017-07-10T02:09:02.956Z,54.2
2017-07-10T02:10:04.979Z,54.2
2017-07-10T02:11:06.995Z,54.2
2017-07-10T02:12:09.018Z,54.3
2017-07-10T02:13:11.025Z,54.3
2017-07-10T02:14:13.046Z,54.2
2017-07-10T02:15:15.392Z,54.3
2017-07-10T02:16:17.410Z,54.3
2017-07-10T02:17:19.420Z,54.2
2017-07-10T02:18:21.446Z,54.3
2017-07-10T02:19:23.455Z,54.3
2017-07-10T02:20:25.468Z,54.4
2017-07-10T02:21:27.477Z,54.4
2017-07-10T02:22:29.487Z,54.4
2017-07-10T02:23:31.502Z,54.4
2017-07-10T02:24:33.862Z,54.4
2017-07-10T02:25:35.875Z,54.4
2017-07-10T02:26:38.253Z,54.4
2017-07-10T02:27:40.250Z,54.4
2017-07-10T02:28:42.623Z,54.5
2017-07-10T02:29:44.643Z,54.4
2017-07-10T02:30:46.653Z,54.5
2017-07-10T02:31:48.671Z,54.6
2017-07-10T02:32:50.691Z,54.6
2017-07-10T02:33:52.698Z,54.6
2017-07-10T02:34:54.723Z,54.5
2017-07-10T02:35:56.725Z,54.7
2017-07-10T02:36:58.751Z,54.7
2017-07-10T02:38:00.760Z,54.7
2017-07-10T02:39:02.780Z,54.7
2017-07-10T02:40:04.795Z,54.8
2017-07-10T02:41:06.809Z,54.8
2017-07-10T02:42:08.823Z,54.8
2017-07-10T02:43:10.842Z,54.8
2017-07-10T02:44:12.860Z,54.7
2017-07-10T02:45:14.881Z,54.9
2017-07-10T02:46:16.902Z,54.7
2017-07-10T02:47:18.922Z,54.8
2017-07-10T02:48:20.938Z,54.9
2017-07-10T02:49:22.959Z,54.9
2017-07-10T02:50:24.963Z,54.8
2017-07-10T02:51:26.991Z,54.8
2017-07-10T02:52:29.002Z,54.8
2017-07-10T02:53:31.021Z,54.8
2017-07-10T02:54:33.042Z,54.8
2017-07-10T02:55:35.060Z,54.8
2017-07-10T02:56:37.068Z,54.9
2017-07-10T02:57:39.084Z,54.9
2017-07-10T02:58:41.100Z,54.8
2017-07-10T02:59:43.118Z,55
2017-07-10T03:00:45.128Z,54.8
2017-07-10T03:01:47.150Z,54.8
2017-07-10T03:02:49.171Z,54.8
2017-07-10T03:03:51.182Z,54.8
2017-07-10T03:04:53.202Z,54.9
2017-07-10T03:05:55.224Z,54.9
2017-07-10T03:06:57.239Z,54.9
2017-07-10T03:07:59.260Z,54.9
2017-07-10T03:09:01.272Z,55
2017-07-10T03:10:03.297Z,55
2017-07-10T03:11:05.309Z,55
2017-07-10T03:12:07.321Z,55
2017-07-10T03:13:09.339Z,55
2017-07-10T03:14:11.358Z,54.9
2017-07-10T03:15:13.366Z,55
2017-07-10T03:16:15.393Z,55
2017-07-10T03:17:17.405Z,55
2017-07-10T03:18:19.424Z,55
2017-07-10T03:19:21.436Z,55
2017-07-10T03:20:23.450Z,55.1
2017-07-10T03:21:25.470Z,55.1
2017-07-10T03:22:27.499Z,55.1
2017-07-10T03:23:29.507Z,55.1
2017-07-10T03:24:31.883Z,55.1
2017-07-10T03:25:33.903Z,55
2017-07-10T03:26:35.917Z,55.1
2017-07-10T03:27:38.270Z,55.1
2017-07-10T03:28:40.293Z,55.1
2017-07-10T03:29:42.302Z,55.2
2017-07-10T03:30:44.324Z,55.2
2017-07-10T03:31:46.405Z,55.2
2017-07-10T03:32:48.366Z,55.2
2017-07-10T03:33:50.381Z,55.2
2017-07-10T03:34:52.398Z,55.3
2017-07-10T03:35:54.426Z,55.2
2017-07-10T03:36:56.439Z,55.3
2017-07-10T03:37:58.452Z,55.3
2017-07-10T03:39:00.488Z,55.3
2017-07-10T03:40:02.842Z,55.3
2017-07-10T03:41:04.852Z,55.3
2017-07-10T03:42:06.873Z,55.2
2017-07-10T03:43:08.892Z,55.3
2017-07-10T03:44:10.913Z,55.2
2017-07-10T03:45:12.936Z,55.3
2017-07-10T03:46:14.958Z,55.3
2017-07-10T03:47:16.978Z,55.2
2017-07-10T03:48:18.985Z,55.3
2017-07-10T03:49:21.339Z,55.3
2017-07-10T03:50:23.369Z,55.3
2017-07-10T03:51:25.382Z,55.3
2017-07-10T03:52:27.394Z,55.3
2017-07-10T03:53:29.415Z,55.2
2017-07-10T03:54:31.433Z,55.2
2017-07-10T03:55:33.444Z,55.2
2017-07-10T03:56:35.459Z,55.2
2017-07-10T03:57:37.491Z,55.2
2017-07-10T03:58:39.513Z,55.2
2017-07-10T03:59:41.521Z,55.2
2017-07-10T04:00:43.544Z,55.2
2017-07-10T04:01:45.900Z,55.2
2017-07-10T04:02:48.262Z,55.2
2017-07-10T04:03:50.286Z,55.2
2017-07-10T04:04:52.307Z,55.2
2017-07-10T04:05:54.666Z,55.3
2017-07-10T04:06:56.683Z,55.3
2017-07-10T04:07:58.737Z,55.4
2017-07-10T04:09:00.707Z,55.3
2017-07-10T04:10:02.720Z,55.3
2017-07-10T04:11:04.747Z,55.4
2017-07-10T04:12:06.759Z,55.4
2017-07-10T04:13:08.776Z,55.4
2017-07-10T04:14:10.794Z,55.4
2017-07-10T04:15:12.812Z,55.4
2017-07-10T04:16:14.824Z,55.4
2017-07-10T04:17:16.844Z,55.5
2017-07-10T04:18:18.866Z,55.5
2017-07-10T04:19:20.884Z,55.5
2017-07-10T04:20:22.895Z,55.5
2017-07-10T04:21:24.917Z,55.4
2017-07-10T04:22:26.925Z,55.5
2017-07-10T04:23:28.945Z,55.5
2017-07-10T04:24:30.977Z,55.4
2017-07-10T04:25:32.986Z,55.4
2017-07-10T04:26:35.008Z,55.4
2017-07-10T04:27:37.027Z,55.5
2017-07-10T04:28:39.035Z,55.4
2017-07-10T04:29:41.066Z,55.4
2017-07-10T04:30:43.088Z,55.4
2017-07-10T04:31:45.455Z,55.4
2017-07-10T04:32:47.473Z,55.3
2017-07-10T04:33:49.827Z,55.3
2017-07-10T04:34:51.847Z,55.3
2017-07-10T04:35:53.857Z,55.4
2017-07-10T04:36:55.880Z,55.3
2017-07-10T04:37:57.909Z,55.3
2017-07-10T04:38:59.914Z,55.4
2017-07-10T04:40:01.938Z,55.4
2017-07-10T04:41:03.961Z,55.4
2017-07-10T04:42:05.985Z,55.4
2017-07-10T04:43:08.009Z,55.4
2017-07-10T04:44:10.024Z,55.4
2017-07-10T04:45:12.038Z,55.4
2017-07-10T04:46:14.053Z,55.3
2017-07-10T04:47:16.082Z,55.2
2017-07-10T04:48:18.102Z,55.3
2017-07-10T04:49:20.119Z,55.2
2017-07-10T04:50:22.138Z,55.2
2017-07-10T04:51:24.150Z,55.3
2017-07-10T04:52:26.169Z,55.3
2017-07-10T04:53:28.192Z,55.3
2017-07-10T04:54:30.221Z,55.3
2017-07-10T04:55:32.246Z,55.3
2017-07-10T04:56:34.251Z,55.3
2017-07-10T04:57:36.276Z,55.2
2017-07-10T04:58:38.301Z,55.1
2017-07-10T04:59:40.317Z,55.2
2017-07-10T05:00:42.333Z,55.1
2017-07-10T05:01:44.365Z,55.1
2017-07-10T05:02:46.380Z,55.1
2017-07-10T05:03:48.392Z,55.1
2017-07-10T05:04:50.417Z,55.1
2017-07-10T05:05:52.438Z,55.1
2017-07-10T05:06:54.463Z,55
2017-07-10T05:07:56.489Z,55.1
2017-07-10T05:08:58.508Z,55
2017-07-10T05:10:00.523Z,55.1
2017-07-10T05:11:02.541Z,54.9
2017-07-10T05:12:04.565Z,54.9
2017-07-10T05:13:06.589Z,54.9
2017-07-10T05:14:08.614Z,54.8
2017-07-10T05:15:10.632Z,54.8
2017-07-10T05:16:12.650Z,54.8
2017-07-10T05:17:14.673Z,54.9
2017-07-10T05:18:16.708Z,54.8
2017-07-10T05:19:18.729Z,54.8
2017-07-10T05:20:20.752Z,54.8
2017-07-10T05:21:22.780Z,54.6
2017-07-10T05:22:24.810Z,54.6
2017-07-10T05:23:26.828Z,54.4
2017-07-10T05:24:28.852Z,54.5
2017-07-10T05:25:30.871Z,54.5
2017-07-10T05:26:32.902Z,54.6
2017-07-10T05:27:34.914Z,54.4
2017-07-10T05:28:36.935Z,54.5
2017-07-10T05:29:38.969Z,54.5
2017-07-10T05:30:40.985Z,54.4
2017-07-10T05:31:43.004Z,54.5
2017-07-10T05:32:45.034Z,54.5
2017-07-10T05:33:47.401Z,54.4
2017-07-10T05:34:49.417Z,54.4
2017-07-10T05:35:51.442Z,54.4
2017-07-10T05:36:53.473Z,54.3
2017-07-10T05:37:55.489Z,54.4
2017-07-10T05:38:57.512Z,54.4
2017-07-10T05:39:59.868Z,54.3
2017-07-10T05:41:01.886Z,54.4
2017-07-10T05:42:03.910Z,54.4
2017-07-10T05:43:05.931Z,54.4
2017-07-10T05:44:07.954Z,54.3
2017-07-10T05:45:09.979Z,54.4
2017-07-10T05:46:11.996Z,54.3
2017-07-10T05:47:14.021Z,54.3
2017-07-10T05:48:16.221Z,54.3
2017-07-10T05:49:18.247Z,54.3
2017-07-10T05:50:20.276Z,54.3
2017-07-10T05:51:22.300Z,54.2
2017-07-10T05:52:24.326Z,54.1
2017-07-10T05:53:26.353Z,54
2017-07-10T05:54:28.380Z,54
2017-07-10T05:55:30.396Z,54
2017-07-10T05:56:32.423Z,54
2017-07-10T05:57:34.444Z,54.1
2017-07-10T05:58:36.507Z,54
2017-07-10T05:59:38.538Z,54
2017-07-10T06:00:40.582Z,54
2017-07-10T06:01:44.078Z,54
2017-07-10T06:02:46.101Z,54
2017-07-10T06:03:48.170Z,54
2017-07-10T06:04:50.199Z,54
2017-07-10T06:05:52.349Z,54
2017-07-10T06:06:54.822Z,53.8
2017-07-10T06:07:56.840Z,53.8
2017-07-10T06:08:59.056Z,53.9
2017-07-10T06:10:01.526Z,53.9
2017-07-10T06:11:03.556Z,53.8
2017-07-10T06:12:05.569Z,53.8
2017-07-10T06:13:07.720Z,53.8
2017-07-10T06:14:10.641Z,53.8
2017-07-10T06:15:13.050Z,53.8
2017-07-10T06:16:15.182Z,53.7
2017-07-10T06:17:17.215Z,53.9
2017-07-10T06:18:19.230Z,53.7
2017-07-10T06:19:22.165Z,53.8
2017-07-10T06:20:25.230Z,53.7
2017-07-10T06:21:27.252Z,53.8
2017-07-10T06:22:29.278Z,53.8
2017-07-10T06:23:31.335Z,53.7
2017-07-10T06:24:33.577Z,53.7
2017-07-10T06:25:35.608Z,53.6
2017-07-10T06:26:37.621Z,53.7
2017-07-10T06:27:39.728Z,53.7
2017-07-10T06:28:42.096Z,53.6
2017-07-10T06:29:44.120Z,53.6
2017-07-10T06:30:46.149Z,53.6
2017-07-10T06:31:48.161Z,53.6
2017-07-10T06:32:50.181Z,53.6
2017-07-10T06:33:52.238Z,53.6
2017-07-10T06:34:54.255Z,53.6
2017-07-10T06:35:56.293Z,53.6
2017-07-10T06:36:58.410Z,53.6
2017-07-10T06:38:00.429Z,53.6
2017-07-10T06:39:02.471Z,53.6
2017-07-10T06:40:04.495Z,53.7
2017-07-10T06:41:06.523Z,53.6
2017-07-10T06:42:08.545Z,53.6
2017-07-10T06:43:10.576Z,53.5
2017-07-10T06:44:12.605Z,53.5
2017-07-10T06:45:14.621Z,53.5
2017-07-10T06:46:16.640Z,53.3
2017-07-10T06:47:18.659Z,53.3
2017-07-10T06:48:20.682Z,53.3
2017-07-10T06:49:22.711Z,53.4
2017-07-10T06:50:24.726Z,53.3
2017-07-10T06:51:26.757Z,53.4
2017-07-10T06:52:28.782Z,53.5
2017-07-10T06:53:30.799Z,53.4
2017-07-10T06:54:32.830Z,53.4
2017-07-10T06:55:34.859Z,53.3
2017-07-10T06:56:36.896Z,53.3
2017-07-10T06:57:38.919Z,53.1
2017-07-10T06:58:40.938Z,52.9
2017-07-10T06:59:42.976Z,52.9
2017-07-10T07:00:45.001Z,52.9
2017-07-10T07:01:47.022Z,53
2017-07-10T07:02:49.058Z,53
2017-07-10T07:03:51.087Z,53
2017-07-10T07:04:53.106Z,53
2017-07-10T07:05:55.124Z,53
2017-07-10T07:06:57.159Z,53.1
2017-07-10T07:07:59.180Z,53.1
2017-07-10T07:09:01.200Z,53.1
2017-07-10T07:10:03.236Z,53.1
2017-07-10T07:11:05.263Z,53.1
2017-07-10T07:12:07.277Z,53.2
2017-07-10T07:13:09.307Z,53.2
2017-07-10T07:14:11.347Z,53.2
2017-07-10T07:15:13.366Z,53.2
2017-07-10T07:16:15.401Z,53.2
2017-07-10T07:17:17.426Z,53.2
2017-07-10T07:18:19.448Z,53.3
2017-07-10T07:19:21.477Z,53.3
2017-07-10T07:20:23.507Z,53.3
2017-07-10T07:21:25.534Z,53.4
2017-07-10T07:22:27.555Z,53.4
2017-07-10T07:23:29.584Z,53.4
2017-07-10T07:24:31.608Z,53.4
2017-07-10T07:25:33.630Z,53.4
2017-07-10T07:26:35.664Z,53.5
2017-07-10T07:27:37.691Z,53.5
2017-07-10T07:28:39.723Z,53.2
2017-07-10T07:29:41.740Z,53.4
2017-07-10T07:30:43.768Z,53.3
2017-07-10T07:31:45.800Z,53.2
2017-07-10T07:32:47.823Z,53.1
2017-07-10T07:33:49.853Z,53.1
2017-07-10T07:34:51.879Z,53
2017-07-10T07:36:58.143Z,53.1
2017-07-10T07:38:00.215Z,53
2017-07-10T07:39:02.284Z,52.8
2017-07-10T07:40:04.351Z,52.9
2017-07-10T07:41:06.421Z,52.9
2017-07-10T07:42:08.480Z,53
2017-07-10T07:43:10.565Z,52.8
2017-07-10T07:44:12.634Z,52.8
2017-07-10T07:45:14.698Z,52.8
2017-07-10T07:46:16.771Z,52.8
2017-07-10T07:47:18.839Z,52.8
2017-07-10T07:48:20.924Z,52.8
2017-07-10T07:49:23.044Z,52.8
2017-07-10T07:50:25.059Z,52.8
2017-07-10T07:51:27.136Z,52.8
2017-07-10T07:52:29.201Z,52.8
2017-07-10T07:53:31.283Z,52.8
2017-07-10T07:54:33.349Z,52.8
2017-07-10T07:55:35.425Z,52.9
2017-07-10T07:56:37.487Z,52.9
2017-07-10T07:57:39.557Z,52.8
2017-07-10T07:58:41.630Z,53
2017-07-10T07:59:43.707Z,53
2017-07-10T08:00:45.784Z,52.9
2017-07-10T08:01:47.847Z,52.9
2017-07-10T08:02:49.911Z,53
2017-07-10T08:03:51.968Z,52.9
2017-07-10T08:04:54.051Z,52.9
2017-07-10T08:05:56.119Z,52.8
2017-07-10T08:06:58.188Z,52.8
2017-07-10T08:08:00.266Z,52.7
2017-07-10T08:09:02.324Z,52.7
2017-07-10T08:10:04.398Z,52.8
2017-07-10T08:11:06.463Z,52.6
2017-07-10T08:12:08.533Z,52.7
2017-07-10T08:13:10.604Z,52.8
2017-07-10T08:14:12.663Z,52.8
2017-07-10T08:15:14.741Z,52.8
2017-07-10T08:16:16.805Z,52.9
2017-07-10T08:17:18.875Z,52.9
2017-07-10T08:18:21.291Z,52.9
2017-07-10T08:19:23.359Z,53
2017-07-10T08:20:25.431Z,53
2017-07-10T08:21:27.503Z,53
2017-07-10T08:22:29.571Z,53
2017-07-10T08:23:31.651Z,52.9
2017-07-10T08:24:33.728Z,52.9
2017-07-10T08:25:35.787Z,52.9
2017-07-10T08:26:37.852Z,52.9
2017-07-10T08:27:39.918Z,52.9
2017-07-10T08:28:41.991Z,52.9
2017-07-10T08:29:44.069Z,52.9
2017-07-10T08:30:46.137Z,53
2017-07-10T08:31:48.206Z,52.9
2017-07-10T08:32:50.274Z,53
2017-07-10T08:33:52.339Z,52.9
2017-07-10T08:34:54.411Z,52.8
2017-07-10T08:35:56.484Z,52.8
2017-07-10T08:36:58.558Z,52.8
2017-07-10T08:38:00.622Z,52.8
2017-07-10T08:39:02.691Z,52.8
2017-07-10T08:40:04.772Z,52.8
2017-07-10T08:41:06.840Z,52.8
2017-07-10T08:42:08.914Z,52.8
2017-07-10T08:43:10.981Z,52.6
2017-07-10T08:44:13.044Z,52.6
2017-07-10T08:45:15.121Z,52.6
2017-07-10T08:46:17.181Z,52.6
2017-07-10T08:47:19.269Z,52.6
2017-07-10T08:48:21.340Z,52.5
2017-07-10T08:49:23.401Z,52.4
2017-07-10T08:50:25.474Z,52.4
2017-07-10T08:51:27.544Z,52.4
2017-07-10T08:52:29.620Z,52.4
2017-07-10T08:53:31.685Z,52.4
2017-07-10T08:54:33.748Z,52.4
2017-07-10T08:55:35.831Z,52.4
2017-07-10T08:56:37.892Z,52.4
2017-07-10T08:57:40.327Z,52.4
2017-07-10T08:58:42.402Z,52.5
2017-07-10T08:59:44.466Z,52.5
2017-07-10T09:00:46.528Z,52.4
2017-07-10T09:01:48.600Z,52.5
2017-07-10T09:02:50.661Z,52.6
2017-07-10T09:03:52.752Z,52.6
2017-07-10T09:04:54.816Z,52.6
2017-07-10T09:05:56.885Z,52.5
2017-07-10T09:06:58.955Z,52.5
2017-07-10T09:08:01.026Z,52.6
2017-07-10T09:09:03.092Z,52.7
2017-07-10T09:10:05.168Z,52.5
2017-07-10T09:11:07.242Z,52.6
2017-07-10T09:12:09.321Z,52.6
2017-07-10T09:13:11.372Z,52.7
2017-07-10T09:14:13.445Z,52.6
2017-07-10T09:15:15.507Z,52.7
2017-07-10T09:16:17.577Z,52.7
2017-07-10T09:17:19.649Z,52.8
2017-07-10T09:18:21.719Z,52.8
2017-07-10T09:19:23.789Z,52.7
2017-07-10T09:20:25.849Z,52.8
2017-07-10T09:21:27.921Z,52.9
2017-07-10T09:22:29.996Z,53.1
2017-07-10T09:23:32.059Z,53.4
2017-07-10T09:24:34.124Z,53.6
2017-07-10T09:25:36.196Z,53.6
2017-07-10T09:26:38.261Z,53.5
2017-07-10T09:27:40.325Z,53.5
2017-07-10T09:28:42.390Z,53.4
2017-07-10T09:29:44.467Z,53.4
2017-07-10T09:30:46.529Z,53.3
2017-07-10T09:31:48.592Z,53.2
2017-07-10T09:32:50.653Z,53.2
2017-07-10T09:33:53.093Z,53.2
2017-07-10T09:34:55.158Z,53.5
2017-07-10T09:35:57.228Z,53.6
2017-07-10T09:36:59.292Z,53.5
2017-07-10T09:38:01.377Z,53.6
2017-07-10T09:39:03.456Z,53.5
2017-07-10T09:40:05.518Z,53.6
2017-07-10T09:41:07.589Z,53.7
2017-07-10T09:42:10.004Z,53.8
2017-07-10T09:43:12.065Z,53.9
2017-07-10T09:44:14.127Z,54
2017-07-10T09:45:16.197Z,54.1
2017-07-10T09:46:18.268Z,54.1
2017-07-10T09:47:20.338Z,54
2017-07-10T09:48:22.398Z,54.1
2017-07-10T09:49:24.466Z,54.2
2017-07-10T09:50:26.543Z,54.2
2017-07-10T09:51:28.618Z,54.4
2017-07-10T09:52:30.684Z,54.4
2017-07-10T09:53:32.750Z,54.5
2017-07-10T09:54:34.820Z,54.5
2017-07-10T09:55:36.878Z,54.5
2017-07-10T09:56:38.955Z,54.7
2017-07-10T09:57:41.368Z,54.7
2017-07-10T09:58:43.435Z,54.7
2017-07-10T09:59:45.515Z,54.8
2017-07-10T10:00:47.575Z,54.9
2017-07-10T10:01:49.652Z,55
2017-07-10T10:02:51.713Z,55
2017-07-10T10:03:53.777Z,54.8
2017-07-10T10:04:55.850Z,54.8
2017-07-10T10:05:57.921Z,54.8
2017-07-10T10:06:59.991Z,54.8
2017-07-10T10:08:02.083Z,54.9
2017-07-10T10:09:04.141Z,55
2017-07-10T10:10:06.211Z,55.1
2017-07-10T10:11:08.277Z,55.1
2017-07-10T10:12:10.344Z,55.1
2017-07-10T10:13:12.408Z,55.1
2017-07-10T10:14:14.477Z,55.2
2017-07-10T10:15:16.542Z,55.2
2017-07-10T10:16:18.604Z,55.3
2017-07-10T10:17:20.669Z,55.4
2017-07-10T10:18:22.789Z,55.6
2017-07-10T10:19:24.794Z,55.6
2017-07-10T10:20:26.859Z,55.7
2017-07-10T10:21:28.936Z,55.7
2017-07-10T10:22:30.999Z,55.8
2017-07-10T10:23:33.064Z,56
2017-07-10T10:24:35.130Z,56
2017-07-10T10:25:37.193Z,56
2017-07-10T10:26:39.264Z,56
2017-07-10T10:27:41.321Z,56
2017-07-10T10:28:43.399Z,56.1
2017-07-10T10:29:45.464Z,56.1
2017-07-10T10:30:47.529Z,56
2017-07-10T10:31:49.599Z,56
2017-07-10T10:32:51.662Z,56
2017-07-10T10:33:53.736Z,56
2017-07-10T10:34:55.803Z,55.9
2017-07-10T10:35:57.858Z,55.9
2017-07-10T10:36:59.932Z,55.9
2017-07-10T10:38:02.003Z,55.8
2017-07-10T10:39:04.065Z,56
2017-07-10T10:40:06.125Z,56
2017-07-10T10:41:08.555Z,56.1
2017-07-10T10:42:10.623Z,56.2
2017-07-10T10:43:12.682Z,56.2
2017-07-10T10:44:14.759Z,56.1
2017-07-10T10:45:16.826Z,56.2
2017-07-10T10:46:18.890Z,56.3
2017-07-10T10:47:20.958Z,56.2
2017-07-10T10:48:23.022Z,56.4
2017-07-10T10:49:25.102Z,56.5
2017-07-10T10:50:27.163Z,56.6
2017-07-10T10:51:29.229Z,56.6
2017-07-10T10:52:31.301Z,56.7
2017-07-10T10:53:33.363Z,56.7
2017-07-10T10:54:35.435Z,56.7
2017-07-10T10:55:37.500Z,56.7
2017-07-10T10:56:39.568Z,56.7
2017-07-10T10:57:41.646Z,56.7
2017-07-10T10:58:43.717Z,56.7
2017-07-10T10:59:45.781Z,56.7
2017-07-10T11:00:47.847Z,56.7
2017-07-10T11:01:49.919Z,56.6
2017-07-10T11:02:51.992Z,56.5
2017-07-10T11:03:54.055Z,56.5
2017-07-10T11:04:56.122Z,56.6
2017-07-10T11:05:58.183Z,56.6
2017-07-10T11:07:00.250Z,56.7
2017-07-10T11:08:02.309Z,56.7
2017-07-10T11:09:04.384Z,56.7
2017-07-10T11:10:06.446Z,56.5
2017-07-10T11:11:08.502Z,56.6
2017-07-10T11:12:10.574Z,56.4
2017-07-10T11:13:12.652Z,56.5
2017-07-10T11:14:14.717Z,56.4
2017-07-10T11:15:16.781Z,56.4
2017-07-10T11:16:18.841Z,56.5
2017-07-10T11:17:20.909Z,56.7
2017-07-10T11:18:22.972Z,56.7
2017-07-10T11:19:25.045Z,56.8
2017-07-10T11:20:27.103Z,56.8
2017-07-10T11:21:29.170Z,56.9
2017-07-10T11:22:31.232Z,57
2017-07-10T11:23:33.290Z,56.9
2017-07-10T11:24:35.356Z,56.9
2017-07-10T11:25:37.428Z,57.1
2017-07-10T11:26:39.491Z,57.2
2017-07-10T11:27:41.553Z,57.3
2017-07-10T11:28:43.611Z,57.2
2017-07-10T11:29:45.679Z,57.2
2017-07-10T11:30:47.735Z,57.3
2017-07-10T11:31:49.816Z,57.3
2017-07-10T11:32:51.886Z,57.4
2017-07-10T11:33:53.947Z,57.5
2017-07-10T11:34:56.026Z,57.5
2017-07-10T11:35:58.090Z,57.6
2017-07-10T11:37:00.149Z,57.5
2017-07-10T11:38:02.219Z,57.6
2017-07-10T11:39:04.281Z,57.6
2017-07-10T11:40:06.349Z,57.6
2017-07-10T11:41:08.423Z,57.6
2017-07-10T11:42:10.477Z,57.5
2017-07-10T11:43:12.560Z,57.5
2017-07-10T11:44:14.642Z,57.6
2017-07-10T11:45:17.047Z,57.5
2017-07-10T11:46:19.103Z,57.5
2017-07-10T11:47:21.184Z,57.6
2017-07-10T11:48:23.259Z,57.6
2017-07-10T11:49:25.322Z,57.6
2017-07-10T11:50:27.744Z,57.5
2017-07-10T11:51:29.810Z,57.6
2017-07-10T11:52:31.869Z,57.6
2017-07-10T11:53:33.932Z,57.6
2017-07-10T11:54:35.994Z,57.6
2017-07-10T11:55:38.063Z,57.5
2017-07-10T11:56:40.131Z,57.5
2017-07-10T11:57:42.185Z,57.5
2017-07-10T11:58:44.247Z,57.5
2017-07-10T11:59:46.308Z,57.5
2017-07-10T12:00:48.372Z,57.5
2017-07-10T12:01:50.441Z,57.6
2017-07-10T12:02:52.498Z,57.6
2017-07-10T12:03:54.569Z,57.5
2017-07-10T12:04:56.626Z,57.6
2017-07-10T12:05:58.696Z,57.6
2017-07-10T12:07:00.761Z,57.7
2017-07-10T12:08:02.831Z,57.7
2017-07-10T12:09:04.901Z,57.6
2017-07-10T12:10:06.961Z,57.7
2017-07-10T12:11:09.027Z,57.8
2017-07-10T12:12:11.098Z,57.8
2017-07-10T12:13:13.148Z,57.9
2017-07-10T12:14:15.914Z,57.8
2017-07-10T12:15:17.987Z,57.8
2017-07-10T12:16:20.042Z,57.9
2017-07-10T12:17:22.106Z,57.9
2017-07-10T12:18:24.173Z,57.9
2017-07-10T12:19:26.590Z,57.9
2017-07-10T12:20:28.662Z,58
2017-07-10T12:21:30.735Z,58
2017-07-10T12:22:33.134Z,58
2017-07-10T12:23:35.202Z,58
2017-07-10T12:24:37.264Z,58.1
2017-07-10T12:25:39.337Z,58.1
2017-07-10T12:26:41.402Z,58
2017-07-10T12:27:43.471Z,58
2017-07-10T12:28:46.364Z,57.9
2017-07-10T12:29:48.440Z,58
2017-07-10T12:30:50.527Z,58.1
2017-07-10T12:31:52.636Z,58.1
2017-07-10T12:32:54.872Z,58.2
2017-07-10T12:34:00.497Z,58.4
2017-07-10T12:35:08.600Z,58.4
2017-07-10T12:36:13.293Z,58.4
2017-07-10T12:37:17.607Z,58.5
2017-07-10T12:38:22.144Z,58.6
2017-07-10T12:39:24.227Z,58.6
2017-07-10T12:40:26.296Z,58.5
2017-07-10T12:41:28.356Z,58.6
2017-07-10T12:42:30.418Z,58.5
2017-07-10T12:43:32.486Z,58.6
2017-07-10T12:44:34.575Z,58.6
2017-07-10T12:45:36.644Z,58.6
2017-07-10T12:46:38.713Z,58.7
2017-07-10T12:47:41.021Z,58.5
2017-07-10T12:48:43.836Z,58.5
2017-07-10T12:49:45.906Z,58.5
2017-07-10T12:50:47.993Z,58.4
2017-07-10T12:51:50.060Z,58.4
2017-07-10T12:52:52.749Z,58.3
2017-07-10T12:53:54.812Z,58.3
2017-07-10T12:54:56.874Z,58.4
2017-07-10T12:55:58.943Z,58.4
2017-07-10T12:57:01.010Z,58.5
2017-07-10T12:58:03.079Z,58.4
2017-07-10T12:59:05.137Z,58.4
2017-07-10T13:00:07.207Z,58.4
2017-07-10T13:01:09.266Z,58.4
2017-07-10T13:02:11.358Z,58.3
2017-07-10T13:03:13.449Z,58.4
2017-07-10T13:04:15.877Z,58.4
2017-07-10T13:05:17.935Z,58.5
2017-07-10T13:06:20.010Z,58.5
2017-07-10T13:07:22.076Z,58.7
2017-07-10T13:08:24.145Z,58.8
2017-07-10T13:09:26.217Z,58.7
2017-07-10T13:10:28.287Z,58.7
2017-07-10T13:11:30.353Z,58.7
2017-07-10T13:12:32.415Z,58.7
2017-07-10T13:13:34.484Z,58.7
2017-07-10T13:14:36.901Z,58.8
2017-07-10T13:15:38.978Z,58.9
2017-07-10T13:16:41.034Z,58.9
2017-07-10T13:17:43.105Z,58.9
2017-07-10T13:18:45.161Z,59
2017-07-10T13:19:47.223Z,58.9
2017-07-10T13:20:49.284Z,58.8
2017-07-10T13:21:51.708Z,58.9
2017-07-10T13:22:53.769Z,58.9
2017-07-10T13:23:55.833Z,58.9
2017-07-10T13:24:57.894Z,58.9
2017-07-10T13:25:59.960Z,59
2017-07-10T13:27:02.027Z,58.9
2017-07-10T13:28:04.102Z,58.9
2017-07-10T13:29:06.160Z,58.9
2017-07-10T13:30:08.221Z,58.8
2017-07-10T13:31:10.301Z,59
2017-07-10T13:32:12.359Z,59
2017-07-10T13:33:14.423Z,59.1
2017-07-10T13:34:16.500Z,59.1
2017-07-10T13:35:18.616Z,59
2017-07-10T13:36:20.631Z,59
2017-07-10T13:37:22.770Z,59
2017-07-10T13:38:24.840Z,59
2017-07-10T13:39:26.914Z,59
2017-07-10T13:40:28.968Z,59
2017-07-10T13:41:31.039Z,59
2017-07-10T13:42:33.455Z,59
2017-07-10T13:43:35.520Z,59
2017-07-10T13:44:37.590Z,59
2017-07-10T13:45:39.644Z,59
2017-07-10T13:46:41.714Z,58.9
2017-07-10T13:47:43.771Z,58.9
2017-07-10T13:48:45.832Z,59.1
2017-07-10T13:49:47.904Z,59.1
2017-07-10T13:50:49.971Z,59
2017-07-10T13:51:52.040Z,59.1
2017-07-10T13:52:54.108Z,59.1
2017-07-10T13:53:56.170Z,59.1
2017-07-10T13:54:58.242Z,59